vendredi 31 janvier 2014

ALERTE SPOTTING 31/01/14

IL9 CU-T1251 Cubana
   CU440/CU441  08h55/11h30

AR8 Malmo Aviation

  TF852/TF853  10h50/11h45

330MRTT EC-340 Royal Saudi Air Force
   dpt 13h10

77W f-GZNB Air France
   dpt AF373Y 17h00

DF5 F-HDPB
   arv 18h20/21h30

320 F-HDMF Air Corsica (cyclistes)
   XK4501/XK753   08h30/09h25
   XK752/XK4516   13h55/14h45
  XK4517/XK4514   20h00/21h05

 Manque les prévisions/immats Air Europa / Flybe / certains Air Algérie
*** Heures en Local Time / prévisions soumises
 à modifications de dernières minutes ***

le TAF de la journée:  *** brouillard ce matin ***



METAR: LFPO 310400Z 00000KT 0150 R02/0550U R26/0375N R08/0400N
R24/0375N R06/0400N FG VV/// 01/01 Q1007 NOSIG=
 
TAF LONG: AMD LFPO 310325Z 3103/0106 VRB03KT 4000 BR NSC TEMPO 3103/3108
0100 FG VV/// BECMG 3109/3111 17007KT BKN010 BECMG 3112/3114 SCT030
TEMPO 3120/0106 4000 -RA BKN010 BECMG 3120/3122 18015G25KT TEMPO
0102/0106 18018G32KT=


Les logs des jours précédents :
 http://www.airkalo.com/ORLYAVIATION/Logdumois.html

jeudi 30 janvier 2014

ALERTE SPOTTING 30/01/14

*** Grève ATC ***

CNJ
  09h00/11h30

332 Air Europa
   UX1223/UX1020  10h45/11h40

744 CN-RGA RAM
   AT764/AT765 14h40/16h30

CNJ D-IAMO
   dpt 20h00

320 F-HDMF Air Corsica (cyclistes)   XK4505/XK4504   19h55/21h00

 Manque les prévisions/immats Air Europa / Flybe / certains Air Algérie
*** Heures en Local Time / prévisions soumises
 à modifications de dernières minutes ***

le TAF de la journée:



METAR: LFPO 300400Z 14003KT 9999 BKN006 04/03 Q1000 NOSIG=

TAF LONG: LFPO 292300Z 3000/3106 06003KT 9999 BKN030 BECMG 3001/3003 BKN012

TEMPO 3003/3007 6000 BKN006 BECMG 3008/3010 VRB03KT BKN015 TEMPO
3015/3018 SCT020 BECMG 3019/3021 17003KT BKN012 PROB40 TEMPO
3100/3106 3000 BR BKN006= 



Les logs des jours précédents :
 http://www.airkalo.com/ORLYAVIATION/Logdumois.html

mardi 28 janvier 2014

AIR SEYCHELLES : Les derniers bruits

Finalement, malgré l'annonce faite par la compagnie en fin d'année 2013, il est probable qu'Air Seychelles ne viendra pas à Orly, n'ayant pas eu de créneaux. Leur retour se ferait alors sur CDG 2A pour avril 2014.

Les logs de chaque jour :
 http://www.airkalo.com/ORLYAVIATION/Logdumois.html

dimanche 26 janvier 2014

ALERTE SPOTTING 26/01/14

IL9 CU-T1250 Cubana
   CU444/CU445 10h30/13h30

744 EC-KQC Pullmantur Air

   PLM6121/PLM710P 08h50/10h50

GRJ XC-LMF Armada de Mexico
   dpt18h00

320 EC-JZQ Vueling (stickers Thanks)
   VY1466/VY1467  16h50/17h25

320 F-HDMF Air Corsica (cyclistes)
   XK4503/XK751   15h00/15h55
   XK750/XK4504  19h55/21h00

 Manque les prévisions Air Europa / Flybe / certains Air Algérie
*** Heures en Local Time / prévisions soumises
 à modifications de dernières minutes ***

le TAF de la journée:



METAR: LFPO 260330Z 28006KT 9999 FEW033 BKN240 05/02 Q1019 NOSIG= 

TAF LONG: LFPO 252300Z 2600/2706 30010KT 9999 SCT025 BECMG 2602/2604
23005KT PROB30 TEMPO 2605/2608 BKN006 BECMG 2608/2610 BKN012 BECMG
2610/2612 17015KT -RA BKN009 TEMPO 2613/2620 18015G30KT 3000 RA
SCT004 BKN009 BECMG 2622/2701 27010KT NSW SCT025=


Les logs des jours précédents :
 http://www.airkalo.com/ORLYAVIATION/Logdumois.html

samedi 25 janvier 2014

ALERTE SPOTTING 25/01/14

73H TC-AZP Pegasus Asia
   PC873/PC874 17h40/18h30

772 TR-KPR Gabon
   dpt  12h00

744 EC-KQC Pullmantur Air

   dpt PLM6021 12h20

73W FAC0001  Fuerza Aerea Colombiana
   dpt 14h40

320 F-HDMF Air Corsica (cyclistes)
   XK4501/XK4500   08H30/09H25
   XK4503/XK4502    15H00/16H10

 Manque les prévisions Air Europa / Flybe / certains Air Algérie
*** Heures en Local Time / prévisions soumises
 à modifications de dernières minutes ***

le TAF de la journée:

METAR: LFPO 250330Z 16005KT 130V190 8000 -RA BKN043 03/02 Q1017
NOSIG=
 
TAF LONG: LFPO 242300Z 2500/2606 17007KT CAVOK BECMG 2502/2504 BKN012 TEMPO
2502/2507 6000 RA BKN009 BECMG 2507/2509 BKN009 PROB30 TEMPO
2509/2513 2000 -DZ BKN004 BECMG 2517/2520 27015G28KT SCT030=

Les logs des jours précédents :
 http://www.airkalo.com/ORLYAVIATION/Logdumois.html

vendredi 24 janvier 2014

ALERTE SPOTTING 24/01/14

IL9 Cubana CU-T1251
   CU440/CU441  08h50/11h30

AR8 Malmo Aviation
   TF850/TF851 11h40/12h20

319 6V-ONE Republique du Sénégal
   dpt  17h30

320 F-HDMF Air Corsica (cyclistes)
   XK4505/XK4504   19h55/21h00

 Manque les prévisions Air Europa / Flybe / certains Air Algérie
*** Heures en Local Time / prévisions soumises
 à modifications de dernières minutes ***

le TAF de la journée:

 METAR: LFPO 240330Z 28004KT CAVOK 03/01 Q1017 NOSIG=

TAF LONG: LFPO 232300Z 2400/2506 26007KT 9999 SCT030 BKN100 BECMG 2415/2418
16005KT SCT013 BKN060 BECMG 2500/2503 -RA SCT008 BKN025

Les logs des jours précédents :
 http://www.airkalo.com/ORLYAVIATION/Logdumois.html